createdAt,value
2022-12-03T00:01:03.785Z,30
2022-12-03T00:06:46.752Z,28
2022-12-03T00:12:29.888Z,31.1
2022-12-03T00:18:12.932Z,27.9
2022-12-03T00:23:55.940Z,27.6
2022-12-03T00:29:38.785Z,27.7
2022-12-03T00:35:21.816Z,28
2022-12-03T00:41:04.942Z,27.8
2022-12-03T00:46:48.175Z,25.9
2022-12-03T00:52:31.181Z,27.9
2022-12-03T00:58:14.165Z,27.2
2022-12-03T01:03:57.167Z,25.9
2022-12-03T01:09:40.285Z,24.3
2022-12-03T01:15:23.592Z,24.5
2022-12-03T01:21:06.760Z,25.3
2022-12-03T01:26:49.753Z,24.7
2022-12-03T01:32:32.817Z,22.8
2022-12-03T01:38:15.547Z,23.9
2022-12-03T01:44:01.083Z,21.6
2022-12-03T01:49:45.823Z,22.8
2022-12-03T01:55:29.005Z,21.1
2022-12-03T02:01:14.474Z,20.2
2022-12-03T02:06:57.586Z,21.1
2022-12-03T02:12:42.625Z,19.4
2022-12-03T02:18:25.840Z,20.4
2022-12-03T02:24:13.265Z,21.8
2022-12-03T02:29:56.425Z,20
2022-12-03T02:35:39.747Z,19.5
2022-12-03T02:41:23.282Z,21
2022-12-03T02:47:07.286Z,20
2022-12-03T02:52:50.525Z,19.1
2022-12-03T02:58:35.200Z,19.2
2022-12-03T03:04:18.146Z,20.2
2022-12-03T03:10:01.944Z,20.2
2022-12-03T03:15:45.865Z,19
2022-12-03T03:21:29.884Z,18.6
2022-12-03T03:27:13.309Z,19.4
2022-12-03T03:32:56.568Z,18.7
2022-12-03T03:38:40.793Z,17.9
2022-12-03T03:44:23.795Z,17.6
2022-12-03T03:50:07.283Z,18.6
2022-12-03T03:55:50.641Z,17.6
2022-12-03T04:01:34.109Z,18.5
2022-12-03T04:07:18.031Z,17.3
2022-12-03T04:13:00.912Z,17.8
2022-12-03T04:18:43.965Z,17.4
2022-12-03T04:24:26.930Z,16.3
2022-12-03T04:30:10.954Z,18.9
2022-12-03T04:35:55.461Z,17.1
2022-12-03T04:41:38.614Z,16.2
2022-12-03T04:47:22.229Z,16.3
2022-12-03T04:53:05.219Z,15.7
2022-12-03T04:58:48.414Z,16.4
2022-12-03T05:04:31.236Z,15.6
2022-12-03T05:10:14.748Z,15.8
2022-12-03T05:15:58.716Z,16.3
2022-12-03T05:21:41.853Z,16.4
2022-12-03T05:27:27.011Z,16
2022-12-03T05:33:09.976Z,17.3
2022-12-03T05:38:53.155Z,16.8
2022-12-03T05:44:36.132Z,16.4
2022-12-03T05:50:19.290Z,14.8
2022-12-03T05:56:02.278Z,16
2022-12-03T06:01:45.554Z,15.7
2022-12-03T06:07:29.046Z,15.6
2022-12-03T06:13:12.485Z,16
2022-12-03T06:18:55.526Z,17.1
2022-12-03T06:24:38.449Z,16.6
2022-12-03T06:30:21.879Z,16
2022-12-03T06:36:05.000Z,15.6
2022-12-03T06:41:48.088Z,14.5
2022-12-03T06:47:30.913Z,16
2022-12-03T06:53:13.796Z,16.2
2022-12-03T06:58:59.065Z,16
2022-12-03T07:04:48.523Z,15.6
2022-12-03T07:10:31.569Z,16.5
2022-12-03T07:16:15.054Z,17
2022-12-03T07:21:58.056Z,16.4
2022-12-03T07:27:40.984Z,16.8
2022-12-03T07:33:24.129Z,16.4
2022-12-03T07:39:07.061Z,17.3
2022-12-03T07:44:51.469Z,17.3
2022-12-03T07:50:34.916Z,15.7
2022-12-03T07:56:19.905Z,14.4
2022-12-03T08:02:04.923Z,15.4
2022-12-03T08:07:47.992Z,18
2022-12-03T08:13:31.017Z,17
2022-12-03T08:19:16.017Z,15.3
2022-12-03T08:25:00.738Z,15.9
2022-12-03T08:30:44.130Z,14.8
2022-12-03T08:36:29.068Z,15.3
2022-12-03T08:42:18.883Z,15.6
2022-12-03T08:48:02.849Z,15
2022-12-03T08:53:49.295Z,15.9
2022-12-03T08:59:33.757Z,14.6
2022-12-03T09:05:20.217Z,15.2
2022-12-03T09:11:03.336Z,15.2
2022-12-03T09:16:46.889Z,14.8
2022-12-03T09:22:29.813Z,14.5
2022-12-03T09:28:12.791Z,14.1
2022-12-03T09:33:55.779Z,15.8
2022-12-03T09:39:38.592Z,15.2
2022-12-03T09:45:21.625Z,13.5
2022-12-03T09:51:04.926Z,16.2
2022-12-03T09:56:47.833Z,15.4
2022-12-03T10:02:32.057Z,17.1
2022-12-03T10:08:18.454Z,17.2
2022-12-03T10:14:01.571Z,15.4
2022-12-03T10:19:44.778Z,17.2
2022-12-03T10:25:27.918Z,15
2022-12-03T10:31:12.650Z,14.7
2022-12-03T10:37:00.864Z,15.5
2022-12-03T10:42:44.059Z,16
2022-12-03T10:48:27.877Z,14.7
2022-12-03T10:54:15.865Z,15.1
2022-12-03T10:59:58.940Z,14.6
2022-12-03T11:05:41.930Z,15.8
2022-12-03T11:11:26.957Z,16
2022-12-03T11:17:12.997Z,13.6
2022-12-03T11:22:57.235Z,13.5
2022-12-03T11:28:46.142Z,15.2
2022-12-03T11:34:40.042Z,13.8
2022-12-03T11:40:41.307Z,13.5
2022-12-03T11:46:26.061Z,14.9
2022-12-03T11:52:15.161Z,15.1
2022-12-03T11:58:03.797Z,14
2022-12-03T12:03:50.222Z,14
2022-12-03T12:09:44.847Z,14.8
2022-12-03T12:15:43.846Z,15.6
2022-12-03T12:21:38.204Z,13.1
2022-12-03T12:27:21.727Z,14.2
2022-12-03T12:33:10.707Z,14.8
2022-12-03T12:38:53.608Z,12.6
2022-12-03T12:44:36.546Z,14
2022-12-03T12:50:20.359Z,14.2
2022-12-03T12:56:04.579Z,15.3
2022-12-03T13:01:48.601Z,13.5
2022-12-03T13:07:32.393Z,15
2022-12-03T13:13:22.070Z,12.5
2022-12-03T13:19:05.545Z,13.7
2022-12-03T13:24:49.680Z,13.3
2022-12-03T13:30:32.955Z,13.9
2022-12-03T13:36:18.533Z,13.3
2022-12-03T13:42:01.720Z,13.2
2022-12-03T13:47:45.933Z,11.6
2022-12-03T13:53:29.970Z,14.2
2022-12-03T13:59:12.990Z,13.3
2022-12-03T14:05:02.678Z,13
2022-12-03T14:10:45.787Z,13.2
2022-12-03T14:16:29.184Z,11.9
2022-12-03T14:22:12.451Z,11.8
2022-12-03T14:27:55.327Z,12.3
2022-12-03T14:33:38.175Z,13.2
2022-12-03T14:39:21.092Z,11.3
2022-12-03T14:45:04.481Z,12
2022-12-03T14:50:47.414Z,12
2022-12-03T14:56:30.528Z,11.5
2022-12-03T15:02:15.588Z,12.1
2022-12-03T15:07:59.121Z,11.6
2022-12-03T15:13:42.092Z,12.8
2022-12-03T15:19:26.335Z,11.3
2022-12-03T15:25:09.561Z,10.9
2022-12-03T15:30:52.834Z,11.7
2022-12-03T15:36:35.984Z,11.7
2022-12-03T15:42:19.132Z,11.4
2022-12-03T15:48:02.435Z,11
2022-12-03T15:53:47.060Z,11.1
2022-12-03T15:59:30.232Z,11.6
2022-12-03T16:05:15.050Z,11.6
2022-12-03T16:10:58.422Z,12.2
2022-12-03T16:16:41.417Z,13.4
2022-12-03T16:22:24.599Z,13.5
2022-12-03T16:28:07.566Z,13.1
2022-12-03T16:33:50.579Z,13.7
2022-12-03T16:39:33.636Z,13.3
2022-12-03T16:45:18.646Z,13.1
2022-12-03T16:51:02.137Z,14.8
2022-12-03T16:56:45.037Z,13.6
2022-12-03T17:02:28.178Z,13.9
2022-12-03T17:08:11.495Z,13.6
2022-12-03T17:13:54.573Z,13.9
2022-12-03T17:19:37.655Z,14.2
2022-12-03T17:25:20.552Z,13
2022-12-03T17:31:03.996Z,14.5
2022-12-03T17:36:47.001Z,15.4
2022-12-03T17:42:30.137Z,15.9
2022-12-03T17:48:13.387Z,14.3
2022-12-03T17:53:56.506Z,15
2022-12-03T17:59:40.634Z,13.8
2022-12-03T18:05:23.751Z,13.8
2022-12-03T18:11:06.845Z,15.6
2022-12-03T18:16:49.803Z,14.3
2022-12-03T18:22:33.372Z,14.3
2022-12-03T18:28:16.404Z,13.3
2022-12-03T18:33:59.362Z,14
2022-12-03T18:39:43.776Z,14
2022-12-03T18:45:27.736Z,12.9
2022-12-03T18:51:15.828Z,12.6
2022-12-03T18:56:58.952Z,14
2022-12-03T19:03:04.622Z,12.8
2022-12-03T19:08:44.954Z,13
2022-12-03T19:14:28.040Z,15.4
2022-12-03T19:20:12.801Z,14.8
2022-12-03T19:26:03.024Z,14
2022-12-03T19:31:46.536Z,14.1
2022-12-03T19:37:29.860Z,12.8
2022-12-03T19:43:12.673Z,14.7
2022-12-03T19:48:57.247Z,15.5
2022-12-03T19:54:40.430Z,14.1
2022-12-03T20:00:23.925Z,14.3
2022-12-03T20:06:07.138Z,14.2
2022-12-03T20:11:52.506Z,15.4
2022-12-03T20:17:35.556Z,15.8
2022-12-03T20:23:18.682Z,16.9
2022-12-03T20:29:01.652Z,14.9
2022-12-03T20:34:45.997Z,15.2
2022-12-03T20:40:29.002Z,14.5
2022-12-03T20:46:16.334Z,15.5
2022-12-03T20:52:06.485Z,15.2
2022-12-03T20:57:49.475Z,16.4
2022-12-03T21:03:32.403Z,15.9
2022-12-03T21:09:15.537Z,16.5
2022-12-03T21:14:59.392Z,17.7
2022-12-03T21:20:46.246Z,16
2022-12-03T21:26:29.296Z,17
2022-12-03T21:32:12.275Z,16.9
2022-12-03T21:37:55.229Z,18.9
2022-12-03T21:43:38.045Z,18.3
2022-12-03T21:49:20.943Z,18
2022-12-03T21:55:04.132Z,17.4
2022-12-03T22:00:47.320Z,16.5
2022-12-03T22:06:30.343Z,18.4
2022-12-03T22:12:13.477Z,20.2
2022-12-03T22:17:56.445Z,19.2
2022-12-03T22:23:39.596Z,18.5
2022-12-03T22:29:22.766Z,18.9
2022-12-03T22:35:06.072Z,18.1
2022-12-03T22:40:48.948Z,18.8
2022-12-03T22:46:32.188Z,19.2
2022-12-03T22:52:15.166Z,19.6
2022-12-03T22:57:58.281Z,18.6
2022-12-03T23:03:41.478Z,18.1
2022-12-03T23:09:24.720Z,17.9
2022-12-03T23:15:08.430Z,20.4
2022-12-03T23:20:53.210Z,20.6
2022-12-03T23:26:36.709Z,19.2
2022-12-03T23:32:19.800Z,19.1
2022-12-03T23:38:03.090Z,19.8
2022-12-03T23:43:46.292Z,20.9
2022-12-03T23:49:30.262Z,19.7
2022-12-03T23:55:14.935Z,21.1
